createdAt,value
2019-02-19T00:01:13.724Z,1.27
2019-02-19T00:03:42.137Z,1.00
2019-02-19T00:06:10.567Z,1.40
2019-02-19T00:08:38.964Z,1.10
2019-02-19T00:11:07.024Z,1.40
2019-02-19T00:13:35.433Z,1.20
2019-02-19T00:16:03.531Z,1.17
2019-02-19T00:18:31.932Z,1.20
2019-02-19T00:21:00.372Z,1.43
2019-02-19T00:23:28.758Z,1.33
2019-02-19T00:25:57.512Z,0.90
2019-02-19T00:28:25.959Z,0.87
2019-02-19T00:30:54.348Z,0.60
2019-02-19T00:33:22.756Z,0.87
2019-02-19T00:35:51.186Z,1.00
2019-02-19T00:38:19.588Z,0.70
2019-02-19T00:40:47.975Z,0.70
2019-02-19T00:43:16.417Z,0.80
2019-02-19T00:45:44.847Z,0.87
2019-02-19T00:48:13.279Z,0.87
2019-02-19T00:50:41.677Z,0.90
2019-02-19T00:53:09.756Z,0.97
2019-02-19T00:55:38.153Z,0.90
2019-02-19T00:58:06.236Z,0.80
2019-02-19T01:00:34.306Z,0.80
2019-02-19T01:03:23.393Z,0.70
2019-02-19T01:05:52.028Z,0.70
2019-02-19T01:08:20.510Z,0.90
2019-02-19T01:10:48.895Z,1.03
2019-02-19T01:13:17.338Z,1.20
2019-02-19T01:15:45.778Z,1.00
2019-02-19T01:18:14.177Z,1.00
2019-02-19T01:20:42.574Z,0.90
2019-02-19T01:23:10.979Z,0.90
2019-02-19T01:25:39.372Z,0.90
2019-02-19T01:28:07.783Z,1.00
2019-02-19T01:30:36.165Z,0.87
2019-02-19T01:33:04.240Z,1.10
2019-02-19T01:35:32.637Z,1.00
2019-02-19T01:38:01.045Z,1.10
2019-02-19T01:40:29.482Z,0.83
2019-02-19T01:42:57.867Z,0.87
2019-02-19T01:45:33.907Z,0.97
2019-02-19T01:47:56.456Z,1.33
2019-02-19T01:50:24.858Z,0.90
2019-02-19T01:52:53.251Z,1.10
2019-02-19T01:55:21.369Z,1.10
2019-02-19T01:57:49.751Z,1.20
2019-02-19T02:00:17.827Z,1.17
2019-02-19T02:02:46.223Z,1.20
2019-02-19T02:05:14.667Z,0.93
2019-02-19T02:07:43.096Z,0.90
2019-02-19T02:10:11.512Z,0.90
2019-02-19T02:12:39.907Z,1.30
2019-02-19T02:15:08.548Z,1.40
2019-02-19T02:17:36.937Z,1.23
2019-02-19T02:20:07.183Z,1.67
2019-02-19T02:22:35.282Z,0.87
2019-02-19T02:25:03.682Z,1.37
2019-02-19T02:27:32.072Z,0.90
2019-02-19T02:30:19.813Z,1.20
2019-02-19T02:32:48.251Z,0.93
2019-02-19T02:35:16.689Z,1.10
2019-02-19T02:37:45.074Z,1.20
2019-02-19T02:40:13.520Z,1.23
2019-02-19T02:42:41.904Z,1.17
2019-02-19T02:45:10.343Z,1.33
2019-02-19T02:47:38.771Z,1.47
2019-02-19T02:50:26.513Z,1.93
2019-02-19T02:52:54.902Z,1.90
2019-02-19T02:55:23.330Z,2.07
2019-02-19T02:57:51.712Z,1.90
2019-02-19T03:00:20.173Z,1.43
2019-02-19T03:02:48.565Z,1.60
2019-02-19T03:05:16.987Z,1.90
2019-02-19T03:07:56.031Z,1.43
2019-02-19T03:10:24.452Z,1.47
2019-02-19T03:12:52.844Z,1.80
2019-02-19T03:15:21.267Z,1.53
2019-02-19T03:17:49.741Z,1.63
2019-02-19T03:20:17.828Z,1.43
2019-02-19T03:22:46.263Z,1.83
2019-02-19T03:25:14.660Z,1.40
2019-02-19T03:27:42.732Z,1.83
2019-02-19T03:30:11.469Z,1.90
2019-02-19T03:32:39.832Z,1.70
2019-02-19T03:35:08.470Z,2.03
2019-02-19T03:37:36.859Z,1.53
2019-02-19T03:40:07.690Z,1.87
2019-02-19T03:42:36.377Z,2.33
2019-02-19T03:45:05.628Z,1.67
2019-02-19T03:47:34.048Z,1.63
2019-02-19T03:50:02.500Z,1.93
2019-02-19T03:52:30.890Z,2.27
2019-02-19T03:54:59.326Z,2.00
2019-02-19T03:57:27.750Z,2.20
2019-02-19T03:59:56.220Z,2.00
2019-02-19T04:02:24.655Z,1.60
2019-02-19T04:04:53.053Z,2.17
2019-02-19T04:07:21.152Z,2.13
2019-02-19T04:09:49.562Z,2.57
2019-02-19T04:12:17.619Z,1.97
2019-02-19T04:14:46.023Z,2.13
2019-02-19T04:17:14.457Z,2.30
2019-02-19T04:19:42.520Z,2.47
2019-02-19T04:22:10.951Z,2.30
2019-02-19T04:24:39.337Z,1.90
2019-02-19T04:27:07.765Z,2.37
2019-02-19T04:29:36.140Z,1.93
2019-02-19T04:32:04.544Z,2.80
2019-02-19T04:34:32.932Z,2.53
2019-02-19T04:37:01.348Z,3.13
2019-02-19T04:39:29.744Z,2.63
2019-02-19T04:41:58.186Z,3.20
2019-02-19T04:44:26.582Z,2.83
2019-02-19T04:46:55.022Z,3.20
2019-02-19T04:49:23.409Z,3.17
2019-02-19T04:51:51.854Z,2.90
2019-02-19T04:54:19.910Z,2.60
2019-02-19T04:56:48.320Z,2.97
2019-02-19T04:59:16.716Z,2.70
2019-02-19T05:01:44.816Z,3.73
2019-02-19T05:04:13.251Z,3.20
2019-02-19T05:06:41.653Z,2.53
2019-02-19T05:09:10.046Z,3.13
2019-02-19T05:11:38.451Z,3.13
2019-02-19T05:14:06.847Z,3.63
2019-02-19T05:16:40.784Z,3.23
2019-02-19T05:19:05.408Z,2.70
2019-02-19T05:21:33.479Z,2.77
2019-02-19T05:24:01.877Z,3.63
2019-02-19T05:26:30.335Z,3.27
2019-02-19T05:28:58.888Z,2.90
2019-02-19T05:31:27.288Z,2.60
2019-02-19T05:33:55.679Z,2.40
2019-02-19T05:36:24.108Z,2.80
2019-02-19T05:38:52.556Z,3.37
2019-02-19T05:41:20.961Z,2.93
2019-02-19T05:43:49.352Z,2.43
2019-02-19T05:46:17.486Z,3.53
2019-02-19T05:48:45.880Z,2.83
2019-02-19T05:51:14.284Z,2.93
2019-02-19T05:53:44.812Z,3.30
2019-02-19T05:56:12.964Z,3.70
2019-02-19T05:58:41.356Z,2.93
2019-02-19T06:01:09.766Z,3.87
2019-02-19T06:03:38.164Z,3.07
2019-02-19T06:06:06.572Z,3.30
2019-02-19T06:08:34.963Z,2.30
2019-02-19T06:11:03.417Z,3.17
2019-02-19T06:13:31.803Z,3.07
2019-02-19T06:16:00.223Z,3.40
2019-02-19T06:18:28.611Z,3.50
2019-02-19T06:20:56.692Z,3.87
2019-02-19T06:23:25.093Z,3.43
2019-02-19T06:25:53.179Z,3.47
2019-02-19T06:28:21.683Z,3.77
2019-02-19T06:30:50.083Z,3.13
2019-02-19T06:33:18.475Z,2.77
2019-02-19T06:35:46.883Z,2.93
2019-02-19T06:38:15.312Z,3.43
2019-02-19T06:40:43.738Z,3.40
2019-02-19T06:43:12.304Z,3.50
2019-02-19T06:45:40.688Z,3.07
2019-02-19T06:48:09.134Z,2.93
2019-02-19T06:50:37.520Z,3.57
2019-02-19T06:53:05.978Z,3.00
2019-02-19T06:55:34.380Z,3.37
2019-02-19T06:58:02.787Z,2.83
2019-02-19T07:00:31.226Z,3.10
2019-02-19T07:03:19.055Z,3.37
2019-02-19T07:05:47.458Z,3.33
2019-02-19T07:08:15.851Z,3.00
2019-02-19T07:10:43.916Z,3.40
2019-02-19T07:13:12.327Z,3.13
2019-02-19T07:15:40.719Z,2.90
2019-02-19T07:18:08.804Z,2.97
2019-02-19T07:20:37.209Z,2.50
2019-02-19T07:23:05.772Z,2.80
2019-02-19T07:25:34.160Z,3.33
2019-02-19T07:28:02.560Z,3.27
2019-02-19T07:30:30.964Z,3.50
2019-02-19T07:32:59.373Z,3.53
2019-02-19T07:35:27.432Z,3.70
2019-02-19T07:37:55.512Z,3.30
2019-02-19T07:40:23.969Z,3.45
2019-02-19T07:42:52.372Z,3.37
2019-02-19T07:45:20.768Z,3.37
2019-02-19T07:47:49.181Z,3.72
2019-02-19T07:50:17.567Z,2.80
2019-02-19T07:52:59.321Z,3.65
2019-02-19T07:55:27.727Z,3.00
2019-02-19T07:57:56.120Z,3.27
2019-02-19T08:00:24.552Z,2.85
2019-02-19T08:02:52.991Z,2.50
2019-02-19T08:05:21.427Z,2.80
2019-02-19T08:07:49.832Z,2.85
2019-02-19T08:10:18.232Z,3.02
2019-02-19T08:12:46.682Z,3.25
2019-02-19T08:15:15.074Z,2.55
2019-02-19T08:17:43.480Z,2.55
2019-02-19T08:20:15.712Z,2.47
2019-02-19T08:22:42.008Z,2.70
2019-02-19T08:25:10.468Z,2.00
2019-02-19T08:27:38.959Z,2.75
2019-02-19T08:30:11.079Z,2.62
2019-02-19T08:32:39.345Z,2.50
2019-02-19T08:35:08.219Z,2.50
2019-02-19T08:37:36.615Z,2.90
2019-02-19T08:40:07.184Z,2.58
2019-02-19T08:42:35.585Z,2.90
2019-02-19T08:45:05.216Z,2.42
2019-02-19T08:47:41.985Z,2.40
2019-02-19T08:50:05.182Z,2.12
2019-02-19T08:52:33.589Z,2.65
2019-02-19T08:55:01.985Z,2.55
2019-02-19T08:57:30.057Z,2.60
2019-02-19T08:59:58.503Z,2.05
2019-02-19T09:02:26.889Z,2.42
2019-02-19T09:04:55.316Z,2.20
2019-02-19T09:07:23.753Z,2.83
2019-02-19T09:09:52.153Z,2.62
2019-02-19T09:12:20.567Z,2.60
2019-02-19T09:14:49.452Z,2.42
2019-02-19T09:17:17.977Z,3.17
2019-02-19T09:19:46.384Z,2.52
2019-02-19T09:22:14.781Z,2.52
2019-02-19T09:24:43.193Z,2.10
2019-02-19T09:27:11.589Z,2.25
2019-02-19T09:29:40.002Z,2.12
2019-02-19T09:32:08.064Z,1.95
2019-02-19T09:34:36.150Z,2.00
2019-02-19T09:37:04.544Z,2.27
2019-02-19T09:39:32.623Z,2.05
2019-02-19T09:42:01.024Z,1.92
2019-02-19T09:44:29.435Z,2.20
2019-02-19T09:46:57.905Z,2.33
2019-02-19T09:49:26.332Z,2.75
2019-02-19T09:51:54.723Z,2.25
2019-02-19T09:54:23.132Z,2.05
2019-02-19T09:56:51.650Z,2.20
2019-02-19T09:59:20.162Z,2.35
2019-02-19T10:01:48.552Z,1.87
2019-02-19T10:04:17.008Z,2.17
2019-02-19T10:06:45.392Z,2.08
2019-02-19T10:09:13.800Z,2.05
2019-02-19T10:11:42.204Z,1.80
2019-02-19T10:14:10.608Z,2.20
2019-02-19T10:16:41.646Z,1.90
2019-02-19T10:19:08.808Z,1.77
2019-02-19T10:21:37.246Z,1.90
2019-02-19T10:24:05.660Z,1.70
2019-02-19T10:26:34.095Z,1.42
2019-02-19T10:29:02.491Z,1.22
2019-02-19T10:31:30.905Z,1.75
2019-02-19T10:33:59.295Z,1.85
2019-02-19T10:36:27.710Z,1.50
2019-02-19T10:38:56.112Z,1.60
2019-02-19T10:41:24.566Z,1.42
2019-02-19T10:43:53.078Z,1.42
2019-02-19T10:46:21.518Z,1.52
2019-02-19T10:48:49.913Z,1.52
2019-02-19T10:51:18.319Z,1.57
2019-02-19T10:53:46.724Z,1.62
2019-02-19T10:56:15.376Z,1.30
2019-02-19T10:58:43.788Z,1.42
2019-02-19T11:01:12.204Z,1.70
2019-02-19T11:03:40.614Z,1.05
2019-02-19T11:06:09.023Z,1.12
2019-02-19T11:08:37.083Z,1.40
2019-02-19T11:11:05.528Z,1.75
2019-02-19T11:13:33.932Z,1.40
2019-02-19T11:16:03.410Z,1.70
2019-02-19T11:18:32.150Z,1.30
2019-02-19T11:21:00.556Z,1.10
2019-02-19T11:23:28.995Z,1.80
2019-02-19T11:25:57.388Z,1.65
2019-02-19T11:28:25.468Z,1.92
2019-02-19T11:30:53.864Z,1.30
2019-02-19T11:33:22.271Z,1.50
2019-02-19T11:35:50.675Z,1.50
2019-02-19T11:38:19.083Z,1.35
2019-02-19T11:40:47.481Z,1.70
2019-02-19T11:43:16.003Z,1.42
2019-02-19T11:45:44.406Z,1.45
2019-02-19T11:48:12.833Z,1.40
2019-02-19T11:50:41.228Z,1.07
2019-02-19T11:53:09.636Z,1.10
2019-02-19T11:55:38.035Z,1.40
2019-02-19T11:58:06.449Z,1.30
2019-02-19T12:00:36.489Z,1.60
2019-02-19T12:03:04.947Z,1.37
2019-02-19T12:05:33.547Z,1.50
2019-02-19T12:08:01.997Z,1.12
2019-02-19T12:10:30.384Z,1.40
2019-02-19T12:12:58.793Z,1.60
2019-02-19T12:15:34.986Z,1.30
2019-02-19T12:17:57.332Z,1.40
2019-02-19T12:20:25.416Z,1.40
2019-02-19T12:22:53.845Z,1.60
2019-02-19T12:25:22.251Z,1.52
2019-02-19T12:27:50.709Z,1.57
2019-02-19T12:30:19.964Z,1.22
2019-02-19T12:32:48.470Z,1.32
2019-02-19T12:35:16.861Z,1.20
2019-02-19T12:37:45.272Z,1.20
2019-02-19T12:40:13.752Z,1.42
2019-02-19T12:42:42.161Z,1.10
2019-02-19T12:45:14.687Z,1.62
2019-02-19T12:47:43.119Z,1.30
2019-02-19T12:50:13.800Z,1.32
2019-02-19T12:52:42.215Z,1.17
2019-02-19T12:55:11.460Z,2.58
2019-02-19T12:57:39.902Z,1.35
2019-02-19T13:00:11.349Z,1.20
2019-02-19T13:02:39.736Z,1.72
2019-02-19T13:05:09.922Z,1.20
2019-02-19T13:07:37.987Z,1.20
2019-02-19T13:10:09.331Z,1.27
2019-02-19T13:12:37.723Z,0.90
2019-02-19T13:15:09.350Z,0.98
2019-02-19T13:17:37.780Z,1.10
2019-02-19T13:20:09.644Z,1.25
2019-02-19T13:22:38.036Z,1.30
2019-02-19T13:25:07.179Z,1.25
2019-02-19T13:27:35.581Z,0.80
2019-02-19T13:30:05.556Z,1.00
2019-02-19T13:32:33.987Z,0.98
2019-02-19T13:35:02.392Z,1.20
2019-02-19T13:37:30.460Z,0.93
2019-02-19T13:39:58.869Z,1.15
2019-02-19T13:42:27.278Z,0.80
2019-02-19T13:44:55.678Z,0.98
2019-02-19T13:47:23.786Z,1.20
2019-02-19T13:49:52.192Z,0.90
2019-02-19T13:52:23.458Z,1.00
2019-02-19T13:54:52.047Z,1.00
2019-02-19T13:57:20.444Z,0.90
2019-02-19T13:59:48.526Z,0.88
2019-02-19T14:02:16.916Z,1.42
2019-02-19T14:04:45.328Z,1.20
2019-02-19T14:07:13.727Z,1.00
2019-02-19T14:09:42.136Z,0.90
2019-02-19T14:12:10.536Z,0.90
2019-02-19T14:14:43.592Z,0.80
2019-02-19T14:17:11.987Z,1.00
2019-02-19T14:20:01.417Z,1.02
2019-02-19T14:22:47.396Z,1.02
2019-02-19T14:25:32.806Z,1.02
2019-02-19T14:28:19.228Z,1.17
2019-02-19T14:30:58.137Z,1.05
2019-02-19T14:33:48.631Z,1.45
2019-02-19T14:36:23.893Z,1.00
2019-02-19T14:39:02.706Z,1.00
2019-02-19T14:41:38.674Z,1.15
2019-02-19T14:44:20.355Z,0.90
2019-02-19T14:46:53.075Z,1.10
2019-02-19T14:49:37.456Z,1.25
2019-02-19T14:52:25.276Z,1.10
2019-02-19T14:55:11.548Z,0.90
2019-02-19T14:57:41.580Z,1.15
2019-02-19T15:00:28.484Z,0.80
2019-02-19T15:02:58.562Z,1.30
2019-02-19T15:05:34.627Z,1.10
2019-02-19T15:08:10.664Z,0.70
2019-02-19T15:10:56.900Z,1.22
2019-02-19T15:13:26.953Z,1.10
2019-02-19T15:16:02.732Z,1.17
2019-02-19T15:18:32.774Z,1.20
2019-02-19T15:21:11.848Z,1.15
2019-02-19T15:23:44.934Z,1.50
2019-02-19T15:26:31.055Z,1.15
2019-02-19T15:29:01.123Z,1.55
2019-02-19T15:31:47.767Z,1.42
2019-02-19T15:34:17.804Z,1.10
2019-02-19T15:36:50.546Z,1.20
2019-02-19T15:39:26.558Z,1.37
2019-02-19T15:42:02.568Z,1.37
2019-02-19T15:44:35.880Z,1.22
2019-02-19T15:47:21.960Z,1.20
2019-02-19T15:50:08.474Z,1.37
2019-02-19T15:52:50.765Z,1.37
2019-02-19T15:55:45.144Z,1.52
2019-02-19T15:58:14.890Z,1.20
2019-02-19T16:00:47.849Z,1.20
2019-02-19T16:03:20.858Z,1.37
2019-02-19T16:05:53.832Z,1.52
2019-02-19T16:08:36.113Z,1.82
2019-02-19T16:11:15.569Z,1.07
2019-02-19T16:13:51.568Z,1.22
2019-02-19T16:16:33.635Z,1.40
2019-02-19T16:19:09.680Z,1.67
2019-02-19T16:21:45.698Z,1.57
2019-02-19T16:24:15.736Z,1.60
2019-02-19T16:26:58.019Z,1.70
2019-02-19T16:29:40.342Z,1.52
2019-02-19T16:32:10.382Z,2.15
2019-02-19T16:34:41.781Z,2.50
2019-02-19T16:37:17.340Z,1.80
2019-02-19T16:39:47.411Z,1.85
2019-02-19T16:42:23.451Z,1.55
2019-02-19T16:45:02.579Z,1.60
2019-02-19T16:47:44.312Z,1.50
2019-02-19T16:50:17.047Z,1.82
2019-02-19T16:52:56.136Z,1.85
2019-02-19T16:55:38.215Z,1.60
2019-02-19T16:58:17.153Z,1.77
2019-02-19T17:00:50.813Z,1.50
2019-02-19T17:03:20.864Z,1.42
2019-02-19T17:05:50.897Z,1.72
2019-02-19T17:08:23.011Z,1.90
2019-02-19T17:11:16.786Z,1.70
2019-02-19T17:13:57.881Z,2.02
2019-02-19T17:16:37.961Z,1.85
2019-02-19T17:19:42.607Z,2.20
2019-02-19T17:22:15.089Z,1.70
2019-02-19T17:25:03.445Z,2.08
2019-02-19T17:27:36.468Z,2.33
2019-02-19T17:30:28.316Z,2.72
2019-02-19T17:32:58.349Z,2.37
2019-02-19T17:35:43.629Z,2.45
2019-02-19T17:38:16.193Z,2.40
2019-02-19T17:41:01.433Z,2.02
2019-02-19T17:43:31.142Z,2.70
2019-02-19T17:46:03.945Z,2.75
2019-02-19T17:48:33.980Z,2.67
2019-02-19T17:51:04.064Z,1.60
2019-02-19T17:53:42.740Z,2.52
2019-02-19T17:56:29.217Z,2.50
2019-02-19T17:59:15.737Z,2.12
2019-02-19T18:02:02.267Z,2.42
2019-02-19T18:04:44.606Z,2.70
2019-02-19T18:07:17.316Z,2.12
2019-02-19T18:09:47.352Z,1.90
2019-02-19T18:12:23.589Z,2.35
2019-02-19T18:15:10.032Z,2.10
2019-02-19T18:17:46.099Z,2.12
2019-02-19T18:20:14.501Z,1.75
2019-02-19T18:22:42.899Z,2.02
2019-02-19T18:25:11.297Z,1.80
2019-02-19T18:27:39.695Z,2.17
2019-02-19T18:30:10.045Z,2.20
2019-02-19T18:32:38.428Z,2.00
2019-02-19T18:35:06.822Z,2.00
2019-02-19T18:37:34.939Z,1.77
2019-02-19T18:40:03.803Z,2.20
2019-02-19T18:42:32.204Z,1.98
2019-02-19T18:45:00.656Z,2.22
2019-02-19T18:47:29.060Z,2.65
2019-02-19T18:49:57.173Z,2.83
2019-02-19T18:52:25.578Z,2.72
2019-02-19T18:54:53.692Z,3.10
2019-02-19T18:57:22.088Z,2.60
2019-02-19T18:59:50.496Z,3.00
2019-02-19T19:02:19.000Z,2.55
2019-02-19T19:04:48.164Z,3.17
2019-02-19T19:07:16.581Z,2.98
2019-02-19T19:09:45.040Z,3.20
2019-02-19T19:12:13.455Z,3.42
2019-02-19T19:14:41.858Z,3.37
2019-02-19T19:17:10.264Z,3.40
2019-02-19T19:19:38.656Z,2.70
2019-02-19T19:22:07.090Z,3.15
2019-02-19T19:24:35.550Z,2.90
2019-02-19T19:27:03.632Z,3.10
2019-02-19T19:29:32.069Z,2.85
2019-02-19T19:32:00.139Z,2.92
2019-02-19T19:34:28.536Z,3.75
2019-02-19T19:36:56.938Z,3.33
2019-02-19T19:39:25.344Z,3.52
2019-02-19T19:41:53.416Z,2.50
2019-02-19T19:44:21.823Z,3.30
2019-02-19T19:46:50.305Z,3.27
2019-02-19T19:49:18.706Z,3.60
2019-02-19T19:51:47.186Z,3.50
2019-02-19T19:54:15.341Z,3.77
2019-02-19T19:56:43.744Z,3.70
2019-02-19T19:59:12.187Z,3.95
2019-02-19T20:01:40.573Z,4.12
2019-02-19T20:04:09.009Z,4.12
2019-02-19T20:06:37.409Z,3.90
2019-02-19T20:09:06.472Z,4.62
2019-02-19T20:11:34.910Z,4.67
2019-02-19T20:14:02.984Z,4.22
2019-02-19T20:16:31.415Z,4.30
2019-02-19T20:18:59.854Z,5.17
2019-02-19T20:21:28.246Z,4.85
2019-02-19T20:23:56.691Z,4.20
2019-02-19T20:26:25.083Z,4.37
2019-02-19T20:28:53.199Z,4.87
2019-02-19T20:31:21.700Z,4.12
2019-02-19T20:33:50.097Z,4.42
2019-02-19T20:36:18.535Z,5.03
2019-02-19T20:38:46.937Z,4.25
2019-02-19T20:41:15.376Z,5.00
2019-02-19T20:43:43.831Z,4.42
2019-02-19T20:46:12.227Z,5.28
2019-02-19T20:48:40.382Z,5.83
2019-02-19T20:51:08.770Z,4.78
2019-02-19T20:53:37.295Z,4.55
2019-02-19T20:56:05.421Z,5.58
2019-02-19T20:58:34.200Z,5.28
2019-02-19T21:01:02.796Z,5.10
2019-02-19T21:03:30.880Z,6.55
2019-02-19T21:05:58.952Z,5.97
2019-02-19T21:08:27.357Z,6.17
2019-02-19T21:10:55.421Z,6.10
2019-02-19T21:13:23.858Z,6.60
2019-02-19T21:15:52.291Z,6.08
2019-02-19T21:18:20.694Z,7.60
2019-02-19T21:20:49.096Z,5.90
2019-02-19T21:23:17.527Z,5.70
2019-02-19T21:25:45.941Z,5.97
2019-02-19T21:28:14.375Z,6.05
2019-02-19T21:30:42.776Z,6.35
2019-02-19T21:33:11.180Z,5.80
2019-02-19T21:35:39.587Z,6.60
2019-02-19T21:38:07.659Z,5.80
2019-02-19T21:40:36.072Z,6.30
2019-02-19T21:43:04.132Z,5.65
2019-02-19T21:45:32.627Z,5.83
2019-02-19T21:48:01.024Z,6.50
2019-02-19T21:50:29.424Z,5.83
2019-02-19T21:52:57.858Z,5.33
2019-02-19T21:55:26.326Z,5.70
2019-02-19T21:57:54.751Z,5.30
2019-02-19T22:00:23.420Z,5.42
2019-02-19T22:02:51.816Z,5.95
2019-02-19T22:05:20.297Z,5.10
2019-02-19T22:07:48.684Z,5.05
2019-02-19T22:10:17.220Z,5.22
2019-02-19T22:12:45.620Z,5.78
2019-02-19T22:15:14.274Z,4.92
2019-02-19T22:17:42.937Z,4.67
2019-02-19T22:20:30.658Z,4.70
2019-02-19T22:22:58.728Z,5.22
2019-02-19T22:25:26.814Z,5.05
2019-02-19T22:27:55.199Z,5.05
2019-02-19T22:30:23.272Z,5.28
2019-02-19T22:32:51.706Z,4.72
2019-02-19T22:35:20.145Z,4.55
2019-02-19T22:37:48.529Z,4.10
2019-02-19T22:40:16.603Z,4.12
2019-02-19T22:42:45.001Z,3.72
2019-02-19T22:45:13.415Z,4.40
2019-02-19T22:47:41.806Z,3.80
2019-02-19T22:50:10.593Z,3.40
2019-02-19T22:52:38.984Z,3.45
2019-02-19T22:55:14.166Z,3.30
2019-02-19T22:57:42.544Z,3.80
2019-02-19T23:00:24.482Z,4.08
2019-02-19T23:02:52.549Z,3.95
2019-02-19T23:05:20.948Z,4.60
2019-02-19T23:07:49.050Z,4.47
2019-02-19T23:10:17.502Z,4.78
2019-02-19T23:12:45.901Z,4.62
2019-02-19T23:15:14.301Z,4.55
2019-02-19T23:17:42.377Z,4.17
2019-02-19T23:20:10.853Z,4.15
2019-02-19T23:22:39.247Z,4.20
2019-02-19T23:25:07.679Z,3.92
2019-02-19T23:27:36.080Z,4.67
2019-02-19T23:30:05.722Z,4.95
2019-02-19T23:32:34.159Z,4.40
2019-02-19T23:35:12.972Z,4.20
2019-02-19T23:37:41.421Z,4.50
2019-02-19T23:40:09.944Z,4.33
2019-02-19T23:42:38.342Z,4.37
2019-02-19T23:45:08.476Z,3.92
2019-02-19T23:47:36.882Z,3.62
2019-02-19T23:50:08.803Z,3.95
2019-02-19T23:52:37.214Z,3.95
2019-02-19T23:55:07.544Z,3.65
2019-02-19T23:57:35.976Z,3.90
